sensor_id;sensor_type;location;lat;lon;timestamp;P1;durP1;ratioP1;P2;durP2;ratioP2
50267;SDS011;36153;50.960;6.220;2023-12-20T00:01:29;9.80;;;5.35;;
50267;SDS011;36153;50.960;6.220;2023-12-20T00:06:30;12.48;;;6.28;;
50267;SDS011;36153;50.960;6.220;2023-12-20T00:11:30;9.70;;;5.60;;
50267;SDS011;36153;50.960;6.220;2023-12-20T00:16:30;11.55;;;6.20;;
50267;SDS011;36153;50.960;6.220;2023-12-20T00:21:31;17.13;;;7.38;;
50267;SDS011;36153;50.960;6.220;2023-12-20T00:26:32;11.85;;;6.97;;
50267;SDS011;36153;50.960;6.220;2023-12-20T00:31:32;12.67;;;6.03;;
50267;SDS011;36153;50.960;6.220;2023-12-20T00:36:33;11.05;;;5.97;;
50267;SDS011;36153;50.960;6.220;2023-12-20T00:41:33;14.87;;;6.97;;
50267;SDS011;36153;50.960;6.220;2023-12-20T00:46:33;12.73;;;6.60;;
50267;SDS011;36153;50.960;6.220;2023-12-20T00:51:34;10.48;;;5.82;;
50267;SDS011;36153;50.960;6.220;2023-12-20T00:56:34;7.00;;;4.28;;
50267;SDS011;36153;50.960;6.220;2023-12-20T01:01:35;11.48;;;5.55;;
50267;SDS011;36153;50.960;6.220;2023-12-20T01:06:35;9.05;;;4.38;;
50267;SDS011;36153;50.960;6.220;2023-12-20T01:11:35;6.50;;;2.47;;
50267;SDS011;36153;50.960;6.220;2023-12-20T01:16:36;7.65;;;2.50;;
50267;SDS011;36153;50.960;6.220;2023-12-20T01:21:36;7.00;;;1.80;;
50267;SDS011;36153;50.960;6.220;2023-12-20T01:26:36;4.47;;;1.80;;
50267;SDS011;36153;50.960;6.220;2023-12-20T01:31:37;4.28;;;1.40;;
50267;SDS011;36153;50.960;6.220;2023-12-20T01:36:37;4.90;;;1.55;;
50267;SDS011;36153;50.960;6.220;2023-12-20T01:41:37;11.07;;;2.10;;
50267;SDS011;36153;50.960;6.220;2023-12-20T01:46:38;2.35;;;1.17;;
50267;SDS011;36153;50.960;6.220;2023-12-20T01:51:38;6.78;;;1.48;;
50267;SDS011;36153;50.960;6.220;2023-12-20T01:56:39;6.13;;;1.85;;
50267;SDS011;36153;50.960;6.220;2023-12-20T02:01:40;4.68;;;0.98;;
50267;SDS011;36153;50.960;6.220;2023-12-20T02:06:40;2.53;;;0.87;;
50267;SDS011;36153;50.960;6.220;2023-12-20T02:11:42;4.50;;;1.10;;
50267;SDS011;36153;50.960;6.220;2023-12-20T02:16:43;8.85;;;1.75;;
50267;SDS011;36153;50.960;6.220;2023-12-20T02:21:43;4.15;;;0.93;;
50267;SDS011;36153;50.960;6.220;2023-12-20T02:26:44;2.30;;;1.30;;
50267;SDS011;36153;50.960;6.220;2023-12-20T02:31:44;6.57;;;2.13;;
50267;SDS011;36153;50.960;6.220;2023-12-20T02:36:44;3.53;;;1.23;;
50267;SDS011;36153;50.960;6.220;2023-12-20T02:41:45;9.70;;;1.90;;
50267;SDS011;36153;50.960;6.220;2023-12-20T02:46:45;10.48;;;2.22;;
50267;SDS011;36153;50.960;6.220;2023-12-20T02:51:45;7.63;;;1.30;;
50267;SDS011;36153;50.960;6.220;2023-12-20T02:56:46;4.20;;;1.58;;
50267;SDS011;36153;50.960;6.220;2023-12-20T03:01:47;2.50;;;1.40;;
50267;SDS011;36153;50.960;6.220;2023-12-20T03:06:47;6.72;;;1.95;;
50267;SDS011;36153;50.960;6.220;2023-12-20T03:11:47;10.02;;;2.03;;
50267;SDS011;36153;50.960;6.220;2023-12-20T03:16:51;3.85;;;1.70;;
50267;SDS011;36153;50.960;6.220;2023-12-20T03:21:51;7.95;;;1.83;;
50267;SDS011;36153;50.960;6.220;2023-12-20T03:26:53;6.20;;;2.10;;
50267;SDS011;36153;50.960;6.220;2023-12-20T03:31:53;7.68;;;2.28;;
50267;SDS011;36153;50.960;6.220;2023-12-20T03:36:54;6.60;;;2.40;;
50267;SDS011;36153;50.960;6.220;2023-12-20T03:41:54;8.37;;;2.33;;
50267;SDS011;36153;50.960;6.220;2023-12-20T03:46:54;5.82;;;2.33;;
50267;SDS011;36153;50.960;6.220;2023-12-20T03:51:54;8.23;;;2.50;;
50267;SDS011;36153;50.960;6.220;2023-12-20T03:56:55;6.97;;;2.40;;
50267;SDS011;36153;50.960;6.220;2023-12-20T04:01:55;9.60;;;1.83;;
50267;SDS011;36153;50.960;6.220;2023-12-20T04:06:55;6.28;;;2.58;;
50267;SDS011;36153;50.960;6.220;2023-12-20T04:11:55;5.10;;;2.30;;
50267;SDS011;36153;50.960;6.220;2023-12-20T04:16:56;9.13;;;2.35;;
50267;SDS011;36153;50.960;6.220;2023-12-20T04:21:56;9.60;;;2.10;;
50267;SDS011;36153;50.960;6.220;2023-12-20T04:26:56;5.18;;;2.17;;
50267;SDS011;36153;50.960;6.220;2023-12-20T04:31:57;6.63;;;1.60;;
50267;SDS011;36153;50.960;6.220;2023-12-20T04:36:57;3.75;;;1.50;;
50267;SDS011;36153;50.960;6.220;2023-12-20T04:41:57;14.95;;;2.53;;
50267;SDS011;36153;50.960;6.220;2023-12-20T04:46:58;12.85;;;1.90;;
50267;SDS011;36153;50.960;6.220;2023-12-20T04:51:58;4.78;;;1.48;;
50267;SDS011;36153;50.960;6.220;2023-12-20T04:56:58;3.78;;;1.85;;
50267;SDS011;36153;50.960;6.220;2023-12-20T05:01:58;15.68;;;2.35;;
50267;SDS011;36153;50.960;6.220;2023-12-20T05:06:59;6.30;;;2.03;;
50267;SDS011;36153;50.960;6.220;2023-12-20T05:11:59;9.27;;;1.60;;
50267;SDS011;36153;50.960;6.220;2023-12-20T05:17:00;4.20;;;1.80;;
50267;SDS011;36153;50.960;6.220;2023-12-20T05:22:01;2.60;;;1.20;;
50267;SDS011;36153;50.960;6.220;2023-12-20T05:27:02;7.43;;;2.15;;
50267;SDS011;36153;50.960;6.220;2023-12-20T05:32:02;6.57;;;2.17;;
50267;SDS011;36153;50.960;6.220;2023-12-20T05:37:04;4.40;;;1.88;;
50267;SDS011;36153;50.960;6.220;2023-12-20T05:42:05;6.03;;;1.63;;
50267;SDS011;36153;50.960;6.220;2023-12-20T05:47:05;7.97;;;1.63;;
50267;SDS011;36153;50.960;6.220;2023-12-20T05:52:05;3.53;;;1.93;;
50267;SDS011;36153;50.960;6.220;2023-12-20T05:57:05;6.68;;;1.52;;
50267;SDS011;36153;50.960;6.220;2023-12-20T06:02:06;8.52;;;2.13;;
50267;SDS011;36153;50.960;6.220;2023-12-20T06:07:06;9.48;;;1.85;;
50267;SDS011;36153;50.960;6.220;2023-12-20T06:12:07;6.35;;;2.13;;
50267;SDS011;36153;50.960;6.220;2023-12-20T06:17:10;4.90;;;2.17;;
50267;SDS011;36153;50.960;6.220;2023-12-20T06:22:11;4.07;;;1.98;;
50267;SDS011;36153;50.960;6.220;2023-12-20T06:27:13;5.03;;;1.98;;
50267;SDS011;36153;50.960;6.220;2023-12-20T06:32:13;6.85;;;2.75;;
50267;SDS011;36153;50.960;6.220;2023-12-20T06:37:13;5.63;;;1.90;;
50267;SDS011;36153;50.960;6.220;2023-12-20T06:42:15;3.97;;;1.90;;
50267;SDS011;36153;50.960;6.220;2023-12-20T06:47:15;6.03;;;2.38;;
50267;SDS011;36153;50.960;6.220;2023-12-20T06:52:15;9.75;;;2.13;;
50267;SDS011;36153;50.960;6.220;2023-12-20T06:57:15;7.68;;;2.25;;
50267;SDS011;36153;50.960;6.220;2023-12-20T07:02:16;8.98;;;2.40;;
50267;SDS011;36153;50.960;6.220;2023-12-20T07:07:16;5.72;;;2.42;;
50267;SDS011;36153;50.960;6.220;2023-12-20T07:12:17;7.20;;;3.30;;
50267;SDS011;36153;50.960;6.220;2023-12-20T07:17:19;11.10;;;2.55;;
50267;SDS011;36153;50.960;6.220;2023-12-20T07:22:19;7.20;;;1.77;;
50267;SDS011;36153;50.960;6.220;2023-12-20T07:27:19;5.93;;;2.47;;
50267;SDS011;36153;50.960;6.220;2023-12-20T07:32:20;4.35;;;2.40;;
50267;SDS011;36153;50.960;6.220;2023-12-20T07:37:20;3.37;;;2.40;;
50267;SDS011;36153;50.960;6.220;2023-12-20T07:42:21;13.25;;;3.72;;
50267;SDS011;36153;50.960;6.220;2023-12-20T07:47:22;10.77;;;2.72;;
50267;SDS011;36153;50.960;6.220;2023-12-20T07:52:22;12.40;;;2.80;;
50267;SDS011;36153;50.960;6.220;2023-12-20T07:57:23;6.57;;;2.15;;
50267;SDS011;36153;50.960;6.220;2023-12-20T08:02:23;4.28;;;2.05;;
50267;SDS011;36153;50.960;6.220;2023-12-20T08:07:24;5.30;;;1.67;;
50267;SDS011;36153;50.960;6.220;2023-12-20T08:12:24;6.85;;;2.25;;
50267;SDS011;36153;50.960;6.220;2023-12-20T08:17:27;6.20;;;1.77;;
50267;SDS011;36153;50.960;6.220;2023-12-20T08:22:27;8.40;;;2.23;;
50267;SDS011;36153;50.960;6.220;2023-12-20T08:27:28;4.88;;;2.40;;
50267;SDS011;36153;50.960;6.220;2023-12-20T08:32:28;11.35;;;2.42;;
50267;SDS011;36153;50.960;6.220;2023-12-20T08:37:28;3.78;;;2.00;;
50267;SDS011;36153;50.960;6.220;2023-12-20T08:42:30;9.82;;;3.13;;
50267;SDS011;36153;50.960;6.220;2023-12-20T08:47:31;9.27;;;2.17;;
50267;SDS011;36153;50.960;6.220;2023-12-20T08:52:31;7.13;;;2.10;;
50267;SDS011;36153;50.960;6.220;2023-12-20T08:57:32;6.43;;;2.30;;
50267;SDS011;36153;50.960;6.220;2023-12-20T09:02:33;2.90;;;1.00;;
50267;SDS011;36153;50.960;6.220;2023-12-20T09:07:36;4.20;;;2.05;;
50267;SDS011;36153;50.960;6.220;2023-12-20T09:12:36;4.03;;;1.80;;
50267;SDS011;36153;50.960;6.220;2023-12-20T09:17:39;6.93;;;2.20;;
50267;SDS011;36153;50.960;6.220;2023-12-20T09:22:41;5.85;;;1.75;;
50267;SDS011;36153;50.960;6.220;2023-12-20T09:27:42;3.42;;;1.60;;
50267;SDS011;36153;50.960;6.220;2023-12-20T09:32:42;6.95;;;2.00;;
50267;SDS011;36153;50.960;6.220;2023-12-20T09:37:42;5.68;;;2.72;;
50267;SDS011;36153;50.960;6.220;2023-12-20T09:42:47;4.93;;;2.00;;
50267;SDS011;36153;50.960;6.220;2023-12-20T09:47:55;6.38;;;2.55;;
50267;SDS011;36153;50.960;6.220;2023-12-20T09:52:58;7.70;;;2.22;;
50267;SDS011;36153;50.960;6.220;2023-12-20T09:58:00;12.27;;;2.85;;
50267;SDS011;36153;50.960;6.220;2023-12-20T10:03:01;3.83;;;1.88;;
50267;SDS011;36153;50.960;6.220;2023-12-20T10:08:02;3.45;;;2.42;;
50267;SDS011;36153;50.960;6.220;2023-12-20T10:13:03;3.65;;;1.80;;
50267;SDS011;36153;50.960;6.220;2023-12-20T10:18:05;3.08;;;1.38;;
50267;SDS011;36153;50.960;6.220;2023-12-20T10:23:07;4.93;;;1.98;;
50267;SDS011;36153;50.960;6.220;2023-12-20T10:33:24;7.38;;;1.95;;
50267;SDS011;36153;50.960;6.220;2023-12-20T10:38:25;2.67;;;1.30;;
50267;SDS011;36153;50.960;6.220;2023-12-20T10:43:27;4.65;;;1.52;;
50267;SDS011;36153;50.960;6.220;2023-12-20T10:48:28;4.18;;;1.48;;
50267;SDS011;36153;50.960;6.220;2023-12-20T10:53:30;5.30;;;1.33;;
50267;SDS011;36153;50.960;6.220;2023-12-20T10:58:32;7.32;;;1.80;;
50267;SDS011;36153;50.960;6.220;2023-12-20T11:03:35;5.20;;;1.65;;
50267;SDS011;36153;50.960;6.220;2023-12-20T11:08:39;5.18;;;2.03;;
50267;SDS011;36153;50.960;6.220;2023-12-20T11:13:57;6.85;;;2.28;;
50267;SDS011;36153;50.960;6.220;2023-12-20T11:19:04;3.70;;;1.52;;
50267;SDS011;36153;50.960;6.220;2023-12-20T11:24:05;9.70;;;2.20;;
50267;SDS011;36153;50.960;6.220;2023-12-20T11:34:35;6.00;;;2.63;;
50267;SDS011;36153;50.960;6.220;2023-12-20T11:39:35;5.70;;;2.17;;
50267;SDS011;36153;50.960;6.220;2023-12-20T11:44:36;4.57;;;2.28;;
50267;SDS011;36153;50.960;6.220;2023-12-20T11:49:37;6.38;;;2.20;;
50267;SDS011;36153;50.960;6.220;2023-12-20T11:54:37;6.03;;;2.63;;
50267;SDS011;36153;50.960;6.220;2023-12-20T11:59:37;7.90;;;1.98;;
50267;SDS011;36153;50.960;6.220;2023-12-20T12:04:38;16.70;;;3.57;;
50267;SDS011;36153;50.960;6.220;2023-12-20T12:09:38;7.00;;;2.13;;
50267;SDS011;36153;50.960;6.220;2023-12-20T12:14:38;6.17;;;2.00;;
50267;SDS011;36153;50.960;6.220;2023-12-20T12:19:40;7.47;;;2.72;;
50267;SDS011;36153;50.960;6.220;2023-12-20T12:24:45;4.13;;;2.20;;
50267;SDS011;36153;50.960;6.220;2023-12-20T12:30:03;4.07;;;2.40;;
50267;SDS011;36153;50.960;6.220;2023-12-20T12:35:07;7.88;;;3.60;;
50267;SDS011;36153;50.960;6.220;2023-12-20T12:40:13;6.50;;;2.28;;
50267;SDS011;36153;50.960;6.220;2023-12-20T12:45:14;6.68;;;2.47;;
50267;SDS011;36153;50.960;6.220;2023-12-20T12:50:15;6.93;;;2.17;;
50267;SDS011;36153;50.960;6.220;2023-12-20T12:55:16;9.63;;;2.00;;
50267;SDS011;36153;50.960;6.220;2023-12-20T13:00:16;4.93;;;2.20;;
50267;SDS011;36153;50.960;6.220;2023-12-20T13:05:16;4.43;;;2.05;;
50267;SDS011;36153;50.960;6.220;2023-12-20T13:10:17;6.75;;;2.00;;
50267;SDS011;36153;50.960;6.220;2023-12-20T13:15:18;5.82;;;2.83;;
50267;SDS011;36153;50.960;6.220;2023-12-20T13:51:09;4.72;;;2.95;;
50267;SDS011;36153;50.960;6.220;2023-12-20T13:56:09;14.83;;;3.23;;
50267;SDS011;36153;50.960;6.220;2023-12-20T14:01:10;10.20;;;2.42;;
50267;SDS011;36153;50.960;6.220;2023-12-20T14:06:10;5.07;;;2.38;;
50267;SDS011;36153;50.960;6.220;2023-12-20T14:11:11;5.50;;;1.97;;
50267;SDS011;36153;50.960;6.220;2023-12-20T14:16:12;10.65;;;3.47;;
50267;SDS011;36153;50.960;6.220;2023-12-20T14:21:12;10.70;;;2.77;;
50267;SDS011;36153;50.960;6.220;2023-12-20T14:26:13;9.82;;;3.40;;
50267;SDS011;36153;50.960;6.220;2023-12-20T14:31:14;8.27;;;2.80;;
50267;SDS011;36153;50.960;6.220;2023-12-20T14:36:15;7.00;;;2.73;;
50267;SDS011;36153;50.960;6.220;2023-12-20T14:41:17;8.30;;;3.42;;
50267;SDS011;36153;50.960;6.220;2023-12-20T14:46:19;6.57;;;3.13;;
50267;SDS011;36153;50.960;6.220;2023-12-20T14:51:19;9.13;;;3.45;;
50267;SDS011;36153;50.960;6.220;2023-12-20T14:56:19;8.02;;;4.32;;
50267;SDS011;36153;50.960;6.220;2023-12-20T15:01:20;10.15;;;4.18;;
50267;SDS011;36153;50.960;6.220;2023-12-20T15:06:21;13.13;;;3.00;;
50267;SDS011;36153;50.960;6.220;2023-12-20T15:11:21;5.40;;;4.10;;
50267;SDS011;36153;50.960;6.220;2023-12-20T15:16:22;6.75;;;2.60;;
50267;SDS011;36153;50.960;6.220;2023-12-20T15:21:23;7.40;;;2.42;;
50267;SDS011;36153;50.960;6.220;2023-12-20T15:26:37;8.57;;;2.83;;
50267;SDS011;36153;50.960;6.220;2023-12-20T15:31:42;3.90;;;1.85;;
50267;SDS011;36153;50.960;6.220;2023-12-20T15:36:43;6.20;;;2.83;;
50267;SDS011;36153;50.960;6.220;2023-12-20T15:41:44;9.65;;;3.53;;
50267;SDS011;36153;50.960;6.220;2023-12-20T15:46:44;13.30;;;3.85;;
50267;SDS011;36153;50.960;6.220;2023-12-20T15:51:45;12.93;;;2.80;;
50267;SDS011;36153;50.960;6.220;2023-12-20T15:56:45;7.38;;;3.60;;
50267;SDS011;36153;50.960;6.220;2023-12-20T16:01:47;5.72;;;3.30;;
50267;SDS011;36153;50.960;6.220;2023-12-20T16:06:48;16.02;;;7.32;;
50267;SDS011;36153;50.960;6.220;2023-12-20T16:11:48;8.45;;;3.67;;
50267;SDS011;36153;50.960;6.220;2023-12-20T16:16:48;6.67;;;2.13;;
50267;SDS011;36153;50.960;6.220;2023-12-20T16:21:49;6.33;;;2.07;;
50267;SDS011;36153;50.960;6.220;2023-12-20T16:26:49;13.48;;;2.80;;
50267;SDS011;36153;50.960;6.220;2023-12-20T16:31:49;10.13;;;3.33;;
50267;SDS011;36153;50.960;6.220;2023-12-20T16:36:51;12.20;;;2.58;;
50267;SDS011;36153;50.960;6.220;2023-12-20T16:41:54;8.32;;;2.85;;
50267;SDS011;36153;50.960;6.220;2023-12-20T16:46:54;10.98;;;3.30;;
50267;SDS011;36153;50.960;6.220;2023-12-20T16:51:56;5.72;;;1.98;;
50267;SDS011;36153;50.960;6.220;2023-12-20T16:56:57;8.10;;;2.42;;
50267;SDS011;36153;50.960;6.220;2023-12-20T17:01:57;7.13;;;3.08;;
50267;SDS011;36153;50.960;6.220;2023-12-20T17:06:58;9.32;;;3.38;;
50267;SDS011;36153;50.960;6.220;2023-12-20T17:11:58;6.97;;;2.30;;
50267;SDS011;36153;50.960;6.220;2023-12-20T17:16:58;7.85;;;2.97;;
50267;SDS011;36153;50.960;6.220;2023-12-20T17:21:59;9.52;;;2.72;;
50267;SDS011;36153;50.960;6.220;2023-12-20T17:26:59;8.18;;;2.67;;
50267;SDS011;36153;50.960;6.220;2023-12-20T17:31:59;14.65;;;3.15;;
50267;SDS011;36153;50.960;6.220;2023-12-20T17:37:00;8.35;;;2.90;;
50267;SDS011;36153;50.960;6.220;2023-12-20T17:42:00;7.53;;;2.60;;
50267;SDS011;36153;50.960;6.220;2023-12-20T17:47:01;6.20;;;2.45;;
50267;SDS011;36153;50.960;6.220;2023-12-20T17:52:02;11.97;;;2.70;;
50267;SDS011;36153;50.960;6.220;2023-12-20T17:57:03;4.28;;;2.42;;
50267;SDS011;36153;50.960;6.220;2023-12-20T18:02:04;7.25;;;2.28;;
50267;SDS011;36153;50.960;6.220;2023-12-20T18:07:04;5.07;;;2.07;;
50267;SDS011;36153;50.960;6.220;2023-12-20T18:12:05;7.10;;;2.90;;
50267;SDS011;36153;50.960;6.220;2023-12-20T18:17:07;6.28;;;2.47;;
50267;SDS011;36153;50.960;6.220;2023-12-20T18:22:07;11.25;;;2.92;;
50267;SDS011;36153;50.960;6.220;2023-12-20T18:27:07;6.43;;;3.38;;
50267;SDS011;36153;50.960;6.220;2023-12-20T18:32:07;5.50;;;2.42;;
50267;SDS011;36153;50.960;6.220;2023-12-20T18:37:08;6.50;;;3.13;;
50267;SDS011;36153;50.960;6.220;2023-12-20T18:42:10;9.80;;;2.15;;
50267;SDS011;36153;50.960;6.220;2023-12-20T18:47:11;5.85;;;2.83;;
50267;SDS011;36153;50.960;6.220;2023-12-20T18:52:11;6.82;;;3.13;;
50267;SDS011;36153;50.960;6.220;2023-12-20T18:57:12;6.97;;;2.63;;
50267;SDS011;36153;50.960;6.220;2023-12-20T19:02:12;5.93;;;2.67;;
50267;SDS011;36153;50.960;6.220;2023-12-20T19:07:13;5.97;;;2.83;;
50267;SDS011;36153;50.960;6.220;2023-12-20T19:12:13;6.30;;;2.88;;
50267;SDS011;36153;50.960;6.220;2023-12-20T19:17:13;6.60;;;3.33;;
50267;SDS011;36153;50.960;6.220;2023-12-20T19:22:14;5.47;;;2.77;;
50267;SDS011;36153;50.960;6.220;2023-12-20T19:27:15;7.53;;;2.92;;
50267;SDS011;36153;50.960;6.220;2023-12-20T19:32:15;9.50;;;3.83;;
50267;SDS011;36153;50.960;6.220;2023-12-20T19:37:15;8.75;;;3.80;;
50267;SDS011;36153;50.960;6.220;2023-12-20T19:42:17;6.22;;;2.53;;
50267;SDS011;36153;50.960;6.220;2023-12-20T19:47:17;5.97;;;2.65;;
50267;SDS011;36153;50.960;6.220;2023-12-20T19:52:17;7.45;;;2.65;;
50267;SDS011;36153;50.960;6.220;2023-12-20T19:57:18;5.32;;;3.67;;
50267;SDS011;36153;50.960;6.220;2023-12-20T20:02:18;6.65;;;3.58;;
50267;SDS011;36153;50.960;6.220;2023-12-20T20:07:18;5.40;;;3.07;;
50267;SDS011;36153;50.960;6.220;2023-12-20T20:12:23;7.97;;;2.72;;
50267;SDS011;36153;50.960;6.220;2023-12-20T20:17:23;5.23;;;2.13;;
50267;SDS011;36153;50.960;6.220;2023-12-20T20:22:23;4.63;;;2.20;;
50267;SDS011;36153;50.960;6.220;2023-12-20T20:27:24;7.28;;;1.95;;
50267;SDS011;36153;50.960;6.220;2023-12-20T20:32:24;7.18;;;2.00;;
50267;SDS011;36153;50.960;6.220;2023-12-20T20:37:26;6.28;;;2.17;;
50267;SDS011;36153;50.960;6.220;2023-12-20T20:42:27;6.40;;;2.47;;
50267;SDS011;36153;50.960;6.220;2023-12-20T20:47:28;5.70;;;2.13;;
50267;SDS011;36153;50.960;6.220;2023-12-20T20:52:28;5.70;;;2.38;;
50267;SDS011;36153;50.960;6.220;2023-12-20T20:57:29;6.80;;;2.88;;
50267;SDS011;36153;50.960;6.220;2023-12-20T21:02:29;4.55;;;1.88;;
50267;SDS011;36153;50.960;6.220;2023-12-20T21:07:31;8.15;;;2.10;;
50267;SDS011;36153;50.960;6.220;2023-12-20T21:12:32;4.53;;;1.95;;
50267;SDS011;36153;50.960;6.220;2023-12-20T21:17:32;7.55;;;2.35;;
50267;SDS011;36153;50.960;6.220;2023-12-20T21:22:32;4.75;;;2.28;;
50267;SDS011;36153;50.960;6.220;2023-12-20T21:27:34;2.55;;;1.77;;
50267;SDS011;36153;50.960;6.220;2023-12-20T21:32:38;6.18;;;2.15;;
50267;SDS011;36153;50.960;6.220;2023-12-20T21:37:38;7.95;;;1.73;;
50267;SDS011;36153;50.960;6.220;2023-12-20T21:42:40;5.43;;;2.30;;
50267;SDS011;36153;50.960;6.220;2023-12-20T21:47:40;5.10;;;2.23;;
50267;SDS011;36153;50.960;6.220;2023-12-20T21:52:42;5.00;;;2.42;;
50267;SDS011;36153;50.960;6.220;2023-12-20T21:57:42;5.90;;;2.33;;
50267;SDS011;36153;50.960;6.220;2023-12-20T22:02:43;4.93;;;1.75;;
50267;SDS011;36153;50.960;6.220;2023-12-20T22:07:43;4.15;;;2.00;;
50267;SDS011;36153;50.960;6.220;2023-12-20T22:12:44;4.70;;;2.75;;
50267;SDS011;36153;50.960;6.220;2023-12-20T22:17:44;5.77;;;2.17;;
50267;SDS011;36153;50.960;6.220;2023-12-20T22:22:44;3.67;;;1.60;;
50267;SDS011;36153;50.960;6.220;2023-12-20T22:27:45;3.70;;;2.15;;
50267;SDS011;36153;50.960;6.220;2023-12-20T22:32:45;3.17;;;1.95;;
50267;SDS011;36153;50.960;6.220;2023-12-20T22:37:45;4.38;;;2.05;;
50267;SDS011;36153;50.960;6.220;2023-12-20T22:42:45;4.63;;;1.73;;
50267;SDS011;36153;50.960;6.220;2023-12-20T22:47:46;4.30;;;1.92;;
50267;SDS011;36153;50.960;6.220;2023-12-20T22:52:46;4.15;;;2.40;;
50267;SDS011;36153;50.960;6.220;2023-12-20T22:57:46;6.90;;;2.15;;
50267;SDS011;36153;50.960;6.220;2023-12-20T23:02:47;3.13;;;2.00;;
50267;SDS011;36153;50.960;6.220;2023-12-20T23:07:47;3.50;;;1.90;;
50267;SDS011;36153;50.960;6.220;2023-12-20T23:12:47;3.50;;;1.80;;
50267;SDS011;36153;50.960;6.220;2023-12-20T23:17:48;2.47;;;1.47;;
50267;SDS011;36153;50.960;6.220;2023-12-20T23:22:49;2.63;;;1.70;;
50267;SDS011;36153;50.960;6.220;2023-12-20T23:27:49;2.45;;;1.42;;
50267;SDS011;36153;50.960;6.220;2023-12-20T23:32:52;1.25;;;1.05;;
50267;SDS011;36153;50.960;6.220;2023-12-20T23:37:52;3.20;;;1.05;;
50267;SDS011;36153;50.960;6.220;2023-12-20T23:42:52;3.25;;;1.35;;
50267;SDS011;36153;50.960;6.220;2023-12-20T23:47:53;1.55;;;1.33;;
50267;SDS011;36153;50.960;6.220;2023-12-20T23:52:53;2.80;;;1.05;;
50267;SDS011;36153;50.960;6.220;2023-12-20T23:57:53;1.27;;;1.17;;
